Time;durP1;ratioP1;P1;durP2;ratioP2;P2;SDS_P1;SDS_P2;PMS_P1;PMS_P2;Temp;Humidity;BMP_temperature;BMP_pressure;BME280_temperature;BME280_humidity;BME280_pressure;Samples;Min_cycle;Max_cycle;Signal;HPM_P1;HPM_P2
2023/03/21 00:00:43;;;;;;;0.80;0.80;;;-2.80;99.90;;;;;;5052247;28;20201;-73
2023/03/21 00:03:09;;;;;;;1.02;1.02;;;-2.80;99.90;;;;;;5058609;28;20366;-73
2023/03/21 00:05:44;;;;;;;0.88;0.88;;;-2.90;99.90;;;;;;5072567;28;20702;-72
2023/03/21 00:08:16;;;;;;;0.80;0.80;;;-2.90;99.90;;;;;;5072967;28;20279;-73
2023/03/21 00:10:51;;;;;;;0.82;0.82;;;-2.90;99.90;;;;;;5072710;28;20184;-73
2023/03/21 00:13:18;;;;;;;0.80;0.80;;;-2.90;99.90;;;;;;5072717;28;20196;-74
2023/03/21 00:15:49;;;;;;;0.60;0.60;;;-2.90;99.90;;;;;;5055041;28;20193;-74
2023/03/21 00:18:16;;;;;;;0.80;0.80;;;-2.90;99.90;;;;;;5072702;28;20207;-74
2023/03/21 00:20:45;;;;;;;0.68;0.68;;;-3.00;99.90;;;;;;5072428;28;20196;-73
2023/03/21 00:23:16;;;;;;;0.70;0.70;;;-3.00;99.90;;;;;;5072286;28;20550;-73
2023/03/21 00:25:48;;;;;;;0.70;0.70;;;-3.00;99.90;;;;;;5072595;28;20189;-73
2023/03/21 00:28:14;;;;;;;0.73;0.73;;;-3.10;99.90;;;;;;5072663;28;20185;-73
2023/03/21 00:30:43;;;;;;;0.70;0.70;;;-3.10;99.90;;;;;;5054411;28;20211;-73
2023/03/21 00:33:09;;;;;;;0.60;0.60;;;-3.10;99.90;;;;;;5072467;28;20189;-73
2023/03/21 00:35:35;;;;;;;0.80;0.80;;;-3.10;99.90;;;;;;5054302;28;20193;-73
2023/03/21 00:38:05;;;;;;;0.70;0.70;;;-3.10;99.90;;;;;;5054483;28;20199;-73
2023/03/21 00:40:31;;;;;;;0.80;0.80;;;-3.10;99.90;;;;;;5072674;28;20597;-73
2023/03/21 00:42:59;;;;;;;0.77;0.77;;;-3.10;99.90;;;;;;5072538;28;20228;-74
2023/03/21 00:45:26;;;;;;;0.70;0.70;;;-3.20;99.90;;;;;;5072072;28;20667;-72
2023/03/21 00:47:55;;;;;;;0.70;0.70;;;-3.10;99.90;;;;;;5072702;28;20200;-72
2023/03/21 00:50:21;;;;;;;0.60;0.60;;;-3.20;99.90;;;;;;5054421;28;20283;-72
2023/03/21 00:52:47;;;;;;;0.60;0.60;;;-3.20;99.90;;;;;;5072303;28;20200;-73
2023/03/21 00:55:15;;;;;;;0.70;0.70;;;-3.20;99.90;;;;;;5072125;28;20197;-73
2023/03/21 00:57:44;;;;;;;0.80;0.80;;;-3.20;99.90;;;;;;5072356;28;20642;-73
2023/03/21 01:00:13;;;;;;;0.75;0.75;;;-3.30;99.90;;;;;;5072136;28;20221;-73
2023/03/21 01:02:55;;;;;;;0.80;0.80;;;-3.30;99.90;;;;;;5071557;28;20567;-73
2023/03/21 01:08:11;;;;;;;0.68;0.68;;;-3.30;99.90;;;;;;5055528;28;20216;-73
2023/03/21 01:10:43;;;;;;;0.70;0.70;;;-3.20;99.90;;;;;;5037607;28;20671;-72
2023/03/21 01:13:17;;;;;;;0.70;0.70;;;-3.20;99.90;;;;;;5055710;28;20259;-73
2023/03/21 01:15:52;;;;;;;0.80;0.80;;;-3.10;99.90;;;;;;5037702;28;20649;-72
2023/03/21 01:18:20;;;;;;;0.80;0.80;;;-3.10;99.90;;;;;;5038106;28;20232;-72
2023/03/21 01:20:47;;;;;;;0.70;0.70;;;-3.10;99.90;;;;;;5037757;28;20205;-72
2023/03/21 01:23:15;;;;;;;0.80;0.80;;;-3.10;99.90;;;;;;5055809;28;20197;-73
2023/03/21 01:25:51;;;;;;;0.70;0.70;;;-3.10;99.90;;;;;;5055395;28;20273;-72
2023/03/21 01:28:20;;;;;;;1.63;1.15;;;-3.10;99.90;;;;;;5055587;28;20666;-73
2023/03/21 01:30:50;;;;;;;0.80;0.80;;;-3.10;99.90;;;;;;5055378;28;20264;-73
2023/03/21 01:33:17;;;;;;;0.80;0.80;;;-3.20;99.90;;;;;;5071809;28;20203;-73
2023/03/21 01:35:43;;;;;;;0.88;0.88;;;-3.20;99.90;;;;;;5057193;28;20254;-73
2023/03/21 01:38:10;;;;;;;0.70;0.70;;;-3.20;99.90;;;;;;5075390;28;20672;-73
2023/03/21 01:40:37;;;;;;;0.90;0.90;;;-3.20;99.90;;;;;;5056902;28;20733;-73
2023/03/21 01:43:36;;;;;;;0.80;0.80;;;-3.30;99.90;;;;;;5054224;28;20230;-73
2023/03/21 01:46:20;;;;;;;0.70;0.70;;;-3.30;99.90;;;;;;4994060;28;20197;-73
2023/03/21 01:48:50;;;;;;;0.80;0.80;;;-3.30;99.90;;;;;;5055037;28;20267;-73
2023/03/21 01:51:18;;;;;;;1.05;1.05;;;-3.40;99.90;;;;;;5037163;28;20208;-73
2023/03/21 01:53:47;;;;;;;0.80;0.80;;;-3.40;99.90;;;;;;5037211;28;20204;-72
2023/03/21 01:56:25;;;;;;;1.50;1.40;;;-3.40;99.90;;;;;;5054796;28;20194;-73
2023/03/21 01:58:54;;;;;;;1.00;1.00;;;-3.40;99.90;;;;;;5055022;28;20205;-72
2023/03/21 02:01:21;;;;;;;0.75;0.75;;;-3.40;99.90;;;;;;5054418;28;20194;-72
2023/03/21 02:03:49;;;;;;;2.25;1.55;;;-3.50;99.90;;;;;;5110180;22;20231;-71
2023/03/21 02:06:43;;;;;;;1.95;1.35;;;-3.50;99.90;;;;;;5095016;28;20223;-71
2023/03/21 02:09:15;;;;;;;1.40;1.33;;;-3.60;99.90;;;;;;5095284;28;20550;-71
2023/03/21 02:11:45;;;;;;;1.23;1.13;;;-3.60;99.90;;;;;;5094114;28;20196;-71
2023/03/21 02:14:15;;;;;;;0.80;0.80;;;-3.60;99.90;;;;;;5093958;28;20654;-71
2023/03/21 02:16:50;;;;;;;0.90;0.90;;;-3.70;99.90;;;;;;5075574;28;20203;-71
2023/03/21 02:19:22;;;;;;;0.80;0.80;;;-3.70;99.90;;;;;;5093931;28;20204;-71
2023/03/21 02:22:12;;;;;;;0.90;0.90;;;-3.80;99.90;;;;;;5094060;28;20244;-71
2023/03/21 02:25:19;;;;;;;0.70;0.70;;;-3.80;99.90;;;;;;5071991;28;20204;-71
2023/03/21 02:27:51;;;;;;;3.65;3.35;;;-3.80;99.90;;;;;;5075460;28;20199;-72
2023/03/21 02:30:26;;;;;;;0.90;0.90;;;-3.80;99.90;;;;;;5075573;28;20693;-72
2023/03/21 02:33:31;;;;;;;0.80;0.80;;;-3.90;99.90;;;;;;5093866;28;20191;-70
2023/03/21 02:36:02;;;;;;;0.80;0.80;;;-4.00;99.90;;;;;;5075599;28;20195;-71
2023/03/21 02:38:38;;;;;;;1.10;1.02;;;-4.00;99.90;;;;;;5075279;28;20204;-71
2023/03/21 02:41:18;;;;;;;0.80;0.80;;;-4.00;99.90;;;;;;5075650;28;20219;-71
2023/03/21 02:44:02;;;;;;;0.68;0.68;;;-4.00;99.90;;;;;;5055234;28;20192;-71
2023/03/21 02:46:34;;;;;;;0.77;0.77;;;-4.10;99.90;;;;;;5073195;28;20646;-72
2023/03/21 02:49:08;;;;;;;1.25;1.15;;;-4.10;99.90;;;;;;5073068;28;20196;-72
2023/03/21 02:51:36;;;;;;;0.77;0.77;;;-4.10;99.90;;;;;;5076104;28;20210;-71
2023/03/21 02:54:06;;;;;;;0.80;0.80;;;-4.10;99.90;;;;;;5093245;28;20196;-71
2023/03/21 02:56:33;;;;;;;0.80;0.80;;;-4.20;99.90;;;;;;5075164;28;20196;-72
2023/03/21 02:58:59;;;;;;;0.80;0.80;;;-4.20;99.90;;;;;;5075156;28;20215;-71
2023/03/21 03:01:27;;;;;;;0.90;0.90;;;-4.20;99.90;;;;;;5074233;28;20596;-72
2023/03/21 03:03:53;;;;;;;0.88;0.88;;;-4.20;99.90;;;;;;5092800;28;20231;-72
2023/03/21 03:06:26;;;;;;;1.10;1.10;;;-4.20;99.90;;;;;;5075168;28;20279;-72
2023/03/21 03:09:10;;;;;;;0.82;0.82;;;-4.20;99.90;;;;;;5093136;28;20200;-72
2023/03/21 03:11:40;;;;;;;0.80;0.80;;;-4.30;99.90;;;;;;5092967;28;20199;-71
2023/03/21 03:14:28;;;;;;;0.80;0.80;;;-4.20;99.90;;;;;;5074984;28;20193;-71
2023/03/21 03:17:17;;;;;;;0.77;0.77;;;-4.20;99.90;;;;;;5074761;28;20265;-71
2023/03/21 03:20:13;;;;;;;0.80;0.80;;;-4.30;99.90;;;;;;5074962;28;20208;-71
2023/03/21 03:23:11;;;;;;;0.80;0.80;;;-4.30;99.90;;;;;;5092770;28;20269;-71
2023/03/21 03:25:51;;;;;;;0.70;0.70;;;-4.20;99.90;;;;;;5082028;28;20693;-71
2023/03/21 03:28:22;;;;;;;0.80;0.80;;;-4.20;99.90;;;;;;5074642;28;20227;-71
2023/03/21 03:30:50;;;;;;;0.88;0.88;;;-4.20;99.90;;;;;;5074472;28;20193;-71
2023/03/21 03:33:22;;;;;;;0.90;0.90;;;-4.20;99.90;;;;;;5092739;28;20184;-72
2023/03/21 03:35:49;;;;;;;0.82;0.82;;;-4.10;99.90;;;;;;5087481;28;20202;-72
2023/03/21 03:38:18;;;;;;;0.70;0.70;;;-4.10;99.90;;;;;;5072707;28;20723;-72
2023/03/21 03:40:50;;;;;;;0.80;0.80;;;-4.10;99.90;;;;;;5072370;28;20214;-71
2023/03/21 03:43:26;;;;;;;1.35;1.25;;;-4.10;99.90;;;;;;5054553;28;20214;-72
2023/03/21 03:46:01;;;;;;;0.77;0.77;;;-4.10;99.90;;;;;;5072533;28;20556;-72
2023/03/21 03:48:35;;;;;;;0.70;0.70;;;-4.10;99.90;;;;;;5062672;28;20195;-73
2023/03/21 03:51:09;;;;;;;0.77;0.77;;;-4.10;99.90;;;;;;5092561;28;20187;-72
2023/03/21 03:54:03;;;;;;;0.80;0.80;;;-4.10;99.90;;;;;;5092311;28;20273;-72
2023/03/21 03:56:29;;;;;;;0.80;0.80;;;-4.10;99.90;;;;;;5071706;28;20223;-72
2023/03/21 03:58:56;;;;;;;0.80;0.80;;;-4.10;99.90;;;;;;5072303;28;20286;-72
2023/03/21 04:01:22;;;;;;;0.80;0.80;;;-4.10;99.90;;;;;;5082139;28;20190;-72
2023/03/21 04:03:48;;;;;;;0.80;0.80;;;-4.20;99.90;;;;;;5091958;28;20682;-72
2023/03/21 04:06:15;;;;;;;2.05;1.83;;;-4.10;99.90;;;;;;5092402;28;20252;-72
2023/03/21 04:08:41;;;;;;;0.88;0.88;;;-4.20;99.90;;;;;;5092320;28;20615;-72
2023/03/21 04:11:07;;;;;;;0.80;0.80;;;-4.20;99.90;;;;;;5092320;28;20199;-72
2023/03/21 04:13:36;;;;;;;0.70;0.70;;;-4.20;99.90;;;;;;5092282;28;20674;-72
2023/03/21 04:16:03;;;;;;;0.80;0.80;;;-4.20;99.90;;;;;;5092385;28;20207;-72
2023/03/21 04:18:29;;;;;;;0.77;0.77;;;-4.20;99.90;;;;;;5092109;28;20197;-72
2023/03/21 04:20:56;;;;;;;0.70;0.70;;;-4.20;99.90;;;;;;5092201;28;20199;-72
2023/03/21 04:23:22;;;;;;;0.80;0.80;;;-4.20;99.90;;;;;;5091855;28;20220;-72
2023/03/21 04:25:49;;;;;;;1.02;1.00;;;-4.30;99.90;;;;;;5092167;28;20222;-72
2023/03/21 04:28:15;;;;;;;0.77;0.77;;;-4.30;99.90;;;;;;5092427;28;20280;-72
2023/03/21 04:30:41;;;;;;;0.80;0.80;;;-4.30;99.90;;;;;;5073898;28;20192;-72
2023/03/21 04:33:07;;;;;;;0.80;0.80;;;-4.40;99.90;;;;;;5091959;28;20192;-73
2023/03/21 04:35:35;;;;;;;0.80;0.80;;;-4.40;99.90;;;;;;5073922;28;20279;-72
2023/03/21 04:38:01;;;;;;;0.70;0.70;;;-4.40;99.90;;;;;;5092018;28;20185;-72
2023/03/21 04:40:27;;;;;;;0.88;0.88;;;-4.50;99.90;;;;;;5092849;28;20200;-72
2023/03/21 04:42:52;;;;;;;0.90;0.90;;;-4.50;99.90;;;;;;5077756;28;20199;-72
2023/03/21 04:45:18;;;;;;;0.80;0.80;;;-4.50;99.90;;;;;;5095580;28;20192;-72
2023/03/21 04:47:44;;;;;;;0.80;0.80;;;-4.50;99.90;;;;;;5077855;28;20199;-72
2023/03/21 04:50:12;;;;;;;0.90;0.90;;;-4.50;99.90;;;;;;5076948;28;20212;-71
2023/03/21 04:52:37;;;;;;;0.80;0.80;;;-4.60;99.90;;;;;;5077362;28;20204;-72
2023/03/21 04:55:03;;;;;;;0.80;0.80;;;-4.50;99.90;;;;;;5095742;28;20194;-72
2023/03/21 04:57:29;;;;;;;0.80;0.80;;;-4.50;99.90;;;;;;5077227;28;20239;-73
2023/03/21 04:59:55;;;;;;;0.80;0.80;;;-4.40;99.90;;;;;;5095534;28;20204;-72
2023/03/21 05:02:21;;;;;;;0.77;0.77;;;-4.30;99.90;;;;;;5094908;28;20192;-74
2023/03/21 05:04:47;;;;;;;0.80;0.80;;;-4.30;99.90;;;;;;5077188;28;20565;-72
2023/03/21 05:07:13;;;;;;;0.90;0.90;;;-4.20;99.90;;;;;;5095395;28;20196;-72
2023/03/21 05:09:38;;;;;;;1.00;1.00;;;-4.20;99.90;;;;;;5095166;28;20210;-72
2023/03/21 05:12:04;;;;;;;0.80;0.80;;;-4.20;99.90;;;;;;5077127;28;20203;-72
2023/03/21 05:14:30;;;;;;;0.93;0.93;;;-4.10;99.90;;;;;;5095253;28;20658;-73
2023/03/21 05:16:56;;;;;;;0.70;0.70;;;-4.00;99.90;;;;;;5095168;28;20686;-73
2023/03/21 05:19:34;;;;;;;0.80;0.80;;;-4.00;99.90;;;;;;5094930;28;20215;-73
2023/03/21 05:22:06;;;;;;;0.90;0.90;;;-3.90;99.90;;;;;;5095217;28;20237;-72
2023/03/21 05:24:32;;;;;;;0.80;0.80;;;-3.80;99.90;;;;;;5094651;28;20219;-72
2023/03/21 05:27:00;;;;;;;0.88;0.88;;;-3.80;99.90;;;;;;5095027;28;20180;-72
2023/03/21 05:29:27;;;;;;;0.80;0.80;;;-3.70;99.90;;;;;;5076601;28;20203;-71
2023/03/21 05:31:53;;;;;;;0.80;0.80;;;-3.70;99.90;;;;;;5095067;28;20276;-71
2023/03/21 05:34:19;;;;;;;0.90;0.90;;;-3.60;99.90;;;;;;5077046;28;20710;-72
2023/03/21 05:36:45;;;;;;;0.80;0.80;;;-3.50;99.90;;;;;;5076591;28;20223;-71
2023/03/21 05:39:11;;;;;;;0.85;0.85;;;-3.50;99.90;;;;;;5094838;28;20320;-72
2023/03/21 05:41:36;;;;;;;0.70;0.70;;;-3.40;99.90;;;;;;5094435;28;20192;-71
2023/03/21 05:44:02;;;;;;;0.80;0.80;;;-3.30;99.90;;;;;;5076495;28;20736;-71
2023/03/21 05:46:28;;;;;;;0.80;0.80;;;-3.30;99.90;;;;;;5076312;28;20677;-71
2023/03/21 05:48:57;;;;;;;0.80;0.80;;;-3.20;99.90;;;;;;5094587;28;20195;-72
2023/03/21 05:51:25;;;;;;;0.70;0.70;;;-3.10;99.90;;;;;;5094259;28;20226;-72
2023/03/21 05:53:53;;;;;;;0.80;0.80;;;-3.00;99.90;;;;;;5075938;28;20283;-72
2023/03/21 05:56:19;;;;;;;1.17;1.13;;;-2.90;99.90;;;;;;5094537;28;20192;-72
2023/03/21 05:58:47;;;;;;;6.20;2.42;;;-2.80;99.90;;;;;;5094436;28;20873;-72
2023/03/21 06:01:13;;;;;;;0.90;0.90;;;-2.80;99.90;;;;;;5094433;28;20192;-73
2023/03/21 06:03:39;;;;;;;1.00;1.00;;;-2.70;99.90;;;;;;5094005;28;20227;-72
2023/03/21 06:06:06;;;;;;;0.80;0.80;;;-2.60;99.90;;;;;;5076561;28;20634;-73
2023/03/21 06:08:32;;;;;;;1.85;1.70;;;-2.50;99.90;;;;;;5094262;28;20204;-73
2023/03/21 06:10:58;;;;;;;0.70;0.70;;;-2.50;99.90;;;;;;5076128;28;20196;-72
2023/03/21 06:13:24;;;;;;;0.80;0.80;;;-2.40;99.90;;;;;;5093989;28;20201;-72
2023/03/21 06:15:49;;;;;;;0.80;0.80;;;-2.30;99.90;;;;;;5076175;28;20203;-72
2023/03/21 06:18:15;;;;;;;0.70;0.70;;;-2.30;99.90;;;;;;5075956;28;20227;-72
2023/03/21 06:20:41;;;;;;;1.00;1.00;;;-2.20;99.90;;;;;;5075849;28;20192;-72
2023/03/21 06:23:07;;;;;;;0.70;0.70;;;-2.10;99.90;;;;;;5093842;28;20535;-73
2023/03/21 06:25:32;;;;;;;0.70;0.70;;;-2.00;99.90;;;;;;5093781;28;20259;-72
2023/03/21 06:27:58;;;;;;;0.70;0.70;;;-1.90;99.90;;;;;;5094079;28;20196;-72
2023/03/21 06:30:24;;;;;;;0.80;0.80;;;-1.80;99.90;;;;;;5093785;28;20192;-72
2023/03/21 06:32:49;;;;;;;1.10;1.00;;;-1.80;99.90;;;;;;5093964;28;20197;-72
2023/03/21 06:35:15;;;;;;;0.80;0.80;;;-1.80;99.90;;;;;;5093945;28;20275;-71
2023/03/21 06:37:42;;;;;;;0.77;0.77;;;-1.80;99.90;;;;;;5075359;28;20200;-72
2023/03/21 06:40:08;;;;;;;0.70;0.70;;;-1.70;99.90;;;;;;5093817;28;20203;-72
2023/03/21 06:42:34;;;;;;;0.60;0.60;;;-1.70;99.90;;;;;;5093335;28;20242;-72
2023/03/21 06:45:00;;;;;;;0.60;0.60;;;-1.60;99.90;;;;;;5093736;28;20196;-72
2023/03/21 06:47:26;;;;;;;0.70;0.70;;;-1.50;99.90;;;;;;5093505;28;20263;-72
2023/03/21 06:49:51;;;;;;;0.90;0.90;;;-1.50;99.90;;;;;;5093609;28;20196;-72
2023/03/21 06:52:17;;;;;;;0.70;0.70;;;-1.40;99.90;;;;;;5075305;28;20578;-72
2023/03/21 06:54:43;;;;;;;4.60;2.50;;;-1.40;99.90;;;;;;5075305;28;20192;-72
2023/03/21 06:57:09;;;;;;;0.70;0.70;;;-1.30;99.90;;;;;;5093451;28;20192;-72
2023/03/21 06:59:35;;;;;;;0.70;0.70;;;-1.20;99.90;;;;;;5074996;28;20743;-72
2023/03/21 07:02:01;;;;;;;0.98;0.98;;;-1.10;99.90;;;;;;5093038;28;20192;-73
2023/03/21 07:04:27;;;;;;;0.60;0.60;;;-1.00;99.90;;;;;;5074612;28;20228;-73
2023/03/21 07:06:53;;;;;;;0.90;0.90;;;-0.90;99.90;;;;;;5093381;28;20199;-73
2023/03/21 07:09:23;;;;;;;0.60;0.60;;;-1.00;99.90;;;;;;5092961;28;20227;-72
2023/03/21 07:11:52;;;;;;;1.05;1.05;;;-0.80;99.90;;;;;;5092308;28;20196;-73
2023/03/21 07:14:18;;;;;;;0.80;0.80;;;-0.80;99.90;;;;;;5092331;28;20286;-73
2023/03/21 07:16:46;;;;;;;0.60;0.60;;;-0.70;99.90;;;;;;5093033;28;20236;-72
2023/03/21 07:19:11;;;;;;;1.00;1.00;;;-0.60;99.90;;;;;;5093056;28;20240;-73
2023/03/21 07:21:37;;;;;;;0.80;0.80;;;-0.50;99.90;;;;;;5074794;28;20324;-73
2023/03/21 07:24:03;;;;;;;1.10;1.00;;;-0.40;99.90;;;;;;5083619;28;20196;-73
2023/03/21 07:26:29;;;;;;;0.70;0.70;;;-0.40;99.90;;;;;;5072508;28;20189;-73
2023/03/21 07:28:55;;;;;;;0.75;0.75;;;-0.30;99.90;;;;;;5072626;28;20279;-73
2023/03/21 07:31:24;;;;;;;0.80;0.80;;;-0.20;99.90;;;;;;5072735;28;20220;-73
2023/03/21 07:33:50;;;;;;;1.98;1.65;;;-0.10;99.90;;;;;;5066157;28;20207;-72
2023/03/21 07:36:16;;;;;;;0.70;0.70;;;0.00;99.90;;;;;;5075092;28;20204;-73
2023/03/21 07:38:43;;;;;;;0.80;0.80;;;0.10;99.90;;;;;;5074731;28;20682;-72
2023/03/21 07:41:09;;;;;;;0.63;0.63;;;0.20;99.90;;;;;;5092681;28;20662;-71
2023/03/21 07:43:37;;;;;;;0.70;0.70;;;0.10;99.90;;;;;;5092611;28;20692;-71
2023/03/21 07:46:03;;;;;;;0.60;0.60;;;0.10;99.90;;;;;;5092776;28;20184;-72
2023/03/21 07:48:32;;;;;;;0.70;0.70;;;0.20;99.90;;;;;;5092532;28;20674;-72
2023/03/21 07:50:58;;;;;;;0.80;0.80;;;0.20;99.90;;;;;;5073596;28;20709;-71
2023/03/21 07:53:23;;;;;;;0.70;0.70;;;0.30;99.90;;;;;;5074375;28;20228;-72
2023/03/21 07:55:51;;;;;;;0.70;0.70;;;0.30;99.90;;;;;;5092616;28;20195;-72
2023/03/21 07:58:17;;;;;;;0.60;0.60;;;0.30;99.90;;;;;;5074372;28;20192;-72
2023/03/21 08:00:43;;;;;;;0.50;0.50;;;0.30;99.90;;;;;;5092362;28;20655;-71
2023/03/21 08:03:09;;;;;;;0.73;0.73;;;0.30;99.90;;;;;;5073940;28;20228;-72
2023/03/21 08:05:36;;;;;;;0.70;0.70;;;0.30;99.90;;;;;;5092145;28;20555;-72
2023/03/21 08:08:04;;;;;;;0.98;0.93;;;0.30;99.90;;;;;;5092553;28;20218;-72
2023/03/21 08:10:29;;;;;;;0.60;0.60;;;0.30;99.90;;;;;;5092338;28;20266;-71
2023/03/21 08:12:55;;;;;;;0.70;0.70;;;0.40;99.90;;;;;;5092397;28;20279;-71
2023/03/21 08:15:21;;;;;;;0.70;0.70;;;0.40;99.90;;;;;;5074925;28;20253;-72
2023/03/21 08:17:47;;;;;;;0.68;0.68;;;0.50;99.90;;;;;;5067046;28;20224;-73
2023/03/21 08:20:20;;;;;;;0.75;0.75;;;0.70;99.90;;;;;;5076210;28;20205;-72
2023/03/21 08:22:46;;;;;;;0.60;0.60;;;0.80;99.90;;;;;;5076203;28;20188;-72
2023/03/21 08:25:14;;;;;;;0.50;0.50;;;0.80;99.90;;;;;;5075826;28;20627;-72
2023/03/21 08:27:41;;;;;;;0.50;0.50;;;0.80;99.90;;;;;;5057948;28;20569;-72
2023/03/21 08:30:09;;;;;;;0.52;0.52;;;0.80;99.90;;;;;;5087754;28;20663;-71
2023/03/21 08:32:37;;;;;;;0.60;0.60;;;0.90;99.90;;;;;;5096323;28;20286;-72
2023/03/21 08:35:06;;;;;;;1.02;1.02;;;1.00;99.90;;;;;;5096029;28;20188;-72
2023/03/21 08:37:31;;;;;;;0.60;0.60;;;1.00;99.90;;;;;;5078039;28;20196;-72
2023/03/21 08:39:57;;;;;;;0.70;0.70;;;1.20;99.90;;;;;;5096014;28;20718;-72
2023/03/21 08:42:23;;;;;;;0.50;0.50;;;1.20;99.90;;;;;;5077376;28;20237;-72
2023/03/21 08:44:49;;;;;;;0.70;0.70;;;1.10;99.90;;;;;;5095970;28;20215;-72
2023/03/21 08:47:15;;;;;;;0.50;0.50;;;1.20;99.90;;;;;;5077655;28;20261;-71
2023/03/21 08:49:44;;;;;;;0.57;0.57;;;1.30;99.90;;;;;;5095669;28;20200;-72
2023/03/21 08:52:13;;;;;;;0.60;0.60;;;1.40;99.90;;;;;;5095896;28;20191;-71
2023/03/21 08:54:40;;;;;;;0.60;0.60;;;1.50;99.90;;;;;;5077738;28;20196;-72
2023/03/21 08:57:07;;;;;;;0.60;0.60;;;1.50;99.90;;;;;;5077515;28;20614;-73
2023/03/21 08:59:34;;;;;;;0.70;0.70;;;1.60;99.90;;;;;;5095499;28;20204;-74
2023/03/21 09:01:59;;;;;;;0.68;0.68;;;1.80;99.90;;;;;;5095061;28;20195;-73
2023/03/21 09:04:25;;;;;;;0.57;0.57;;;1.90;99.90;;;;;;5093739;28;20216;-74
2023/03/21 09:06:51;;;;;;;0.70;0.70;;;2.10;99.90;;;;;;5095594;28;20188;-74
2023/03/21 09:09:17;;;;;;;0.60;0.60;;;2.30;99.90;;;;;;5076803;28;20590;-74
2023/03/21 09:11:43;;;;;;;0.55;0.55;;;2.40;99.90;;;;;;5095393;28;20606;-72
2023/03/21 09:14:10;;;;;;;0.70;0.70;;;2.40;99.90;;;;;;5095360;28;20271;-73
2023/03/21 09:16:36;;;;;;;0.50;0.50;;;2.50;99.90;;;;;;5095184;28;20688;-73
2023/03/21 09:19:03;;;;;;;0.52;0.52;;;2.50;99.90;;;;;;5095236;28;20200;-73
2023/03/21 09:21:29;;;;;;;0.70;0.70;;;2.40;99.90;;;;;;5077312;28;20192;-73
2023/03/21 09:23:59;;;;;;;0.60;0.60;;;2.40;99.90;;;;;;5086989;28;20193;-73
2023/03/21 09:26:26;;;;;;;0.50;0.50;;;2.30;99.90;;;;;;5068273;28;20253;-73
2023/03/21 09:28:54;;;;;;;0.90;0.90;;;2.40;99.90;;;;;;5094658;28;20555;-74
2023/03/21 09:31:22;;;;;;;0.60;0.60;;;2.10;99.90;;;;;;5094859;28;20195;-74
2023/03/21 09:33:52;;;;;;;0.77;0.77;;;2.00;99.90;;;;;;5095112;28;20245;-73
2023/03/21 09:36:20;;;;;;;0.50;0.50;;;2.10;99.90;;;;;;5094998;28;20212;-73
2023/03/21 09:38:48;;;;;;;0.57;0.57;;;2.10;99.90;;;;;;5076630;28;20725;-73
2023/03/21 09:41:31;;;;;;;0.60;0.60;;;2.10;99.90;;;;;;5076867;28;20198;-73
2023/03/21 09:44:03;;;;;;;1.55;1.45;;;2.10;99.90;;;;;;5076661;28;20731;-73
2023/03/21 09:46:54;;;;;;;0.57;0.57;;;2.20;99.90;;;;;;5076470;28;20188;-73
2023/03/21 09:49:35;;;;;;;0.68;0.68;;;2.30;99.90;;;;;;5057697;28;20582;-73
2023/03/21 09:52:10;;;;;;;0.60;0.60;;;2.40;99.90;;;;;;5094784;28;20678;-73
2023/03/21 09:54:39;;;;;;;0.60;0.60;;;2.40;99.90;;;;;;5094852;28;20654;-74
2023/03/21 09:57:24;;;;;;;0.50;0.50;;;2.50;99.90;;;;;;5076430;28;20200;-72
2023/03/21 09:59:52;;;;;;;0.70;0.70;;;2.60;99.90;;;;;;5094318;28;20714;-74
2023/03/21 10:02:18;;;;;;;0.50;0.50;;;2.80;99.90;;;;;;5075907;28;20295;-73
2023/03/21 10:04:45;;;;;;;0.98;0.98;;;2.90;99.90;;;;;;5076295;28;20200;-74
2023/03/21 10:07:18;;;;;;;0.70;0.70;;;3.00;99.90;;;;;;5094476;28;20233;-73
2023/03/21 10:09:46;;;;;;;0.70;0.70;;;3.10;99.90;;;;;;5069876;28;20277;-74
2023/03/21 10:12:20;;;;;;;4.55;1.17;;;3.10;99.90;;;;;;5074110;28;20205;-72
2023/03/21 10:14:56;;;;;;;0.60;0.60;;;3.00;99.90;;;;;;5074213;28;20655;-74
2023/03/21 10:17:32;;;;;;;0.57;0.57;;;3.00;99.90;;;;;;5055885;28;20638;-71
2023/03/21 10:20:11;;;;;;;0.60;0.60;;;3.10;99.90;;;;;;5073945;28;20205;-72
2023/03/21 10:22:37;;;;;;;0.70;0.70;;;3.20;99.90;;;;;;5085486;28;20192;-72
2023/03/21 10:25:04;;;;;;;0.43;0.43;;;3.40;99.90;;;;;;5093834;28;20633;-72
2023/03/21 10:27:32;;;;;;;0.70;0.70;;;3.50;99.90;;;;;;5093798;28;20271;-72
2023/03/21 10:29:59;;;;;;;0.50;0.50;;;3.60;99.90;;;;;;5073701;28;20623;-73
2023/03/21 10:32:32;;;;;;;0.65;0.65;;;3.60;99.90;;;;;;5058486;28;20200;-74
2023/03/21 10:34:59;;;;;;;0.50;0.50;;;3.70;99.90;;;;;;5077152;28;20246;-71
2023/03/21 10:37:26;;;;;;;0.70;0.70;;;3.80;99.90;;;;;;5073446;28;20201;-71
2023/03/21 10:39:53;;;;;;;0.70;0.70;;;3.80;99.90;;;;;;5073183;28;20720;-71
2023/03/21 10:42:28;;;;;;;0.60;0.60;;;3.90;99.90;;;;;;5073336;28;20260;-71
2023/03/21 10:44:56;;;;;;;0.60;0.60;;;3.80;99.90;;;;;;5073469;28;20271;-72
2023/03/21 10:47:32;;;;;;;0.60;0.60;;;3.90;99.90;;;;;;5055263;28;20200;-72
2023/03/21 10:50:06;;;;;;;0.70;0.70;;;4.10;99.90;;;;;;5073381;28;20241;-72
2023/03/21 10:52:32;;;;;;;0.68;0.68;;;4.00;99.90;;;;;;5073159;28;20567;-71
2023/03/21 10:55:20;;;;;;;0.50;0.50;;;4.10;99.90;;;;;;5083192;28;20223;-72
2023/03/21 10:57:47;;;;;;;0.70;0.70;;;4.00;99.90;;;;;;5075244;28;20196;-72
2023/03/21 11:00:23;;;;;;;0.70;0.70;;;3.90;99.90;;;;;;5093353;28;20215;-72
2023/03/21 11:02:51;;;;;;;0.70;0.70;;;3.80;99.90;;;;;;5093023;28;20743;-72
2023/03/21 11:05:23;;;;;;;0.60;0.60;;;3.70;99.90;;;;;;5074177;28;20241;-71
2023/03/21 11:08:02;;;;;;;0.60;0.60;;;3.60;99.90;;;;;;5073023;28;20241;-73
2023/03/21 11:10:50;;;;;;;0.60;0.60;;;3.70;99.90;;;;;;5072887;28;20193;-71
2023/03/21 11:13:26;;;;;;;0.70;0.70;;;3.60;99.90;;;;;;5072908;28;20231;-72
2023/03/21 11:16:02;;;;;;;0.60;0.60;;;3.60;99.90;;;;;;5072912;28;20204;-72
2023/03/21 11:18:34;;;;;;;2.15;1.30;;;3.70;99.90;;;;;;5063046;28;20221;-72
2023/03/21 11:21:06;;;;;;;0.50;0.50;;;3.70;99.90;;;;;;5075159;28;20192;-72
2023/03/21 11:23:34;;;;;;;0.52;0.52;;;3.70;99.90;;;;;;5074412;28;20296;-72
2023/03/21 11:26:02;;;;;;;0.60;0.60;;;3.80;99.90;;;;;;5092894;28;20192;-72
2023/03/21 11:28:43;;;;;;;0.60;0.60;;;3.70;99.90;;;;;;5092836;28;20212;-72
2023/03/21 11:31:09;;;;;;;0.60;0.60;;;3.70;99.90;;;;;;5093097;28;20188;-72
2023/03/21 11:33:48;;;;;;;0.60;0.60;;;3.80;99.90;;;;;;5093124;28;20728;-72
2023/03/21 11:36:17;;;;;;;0.60;0.60;;;3.90;99.90;;;;;;5092809;28;20266;-72
2023/03/21 11:38:43;;;;;;;0.60;0.60;;;4.00;99.90;;;;;;5092610;28;20211;-72
2023/03/21 11:41:22;;;;;;;0.95;0.95;;;4.30;99.90;;;;;;5092726;28;20188;-72
2023/03/21 11:43:52;;;;;;;0.65;0.65;;;4.50;99.90;;;;;;5075007;28;20549;-72
2023/03/21 11:46:26;;;;;;;0.65;0.65;;;4.50;99.90;;;;;;5074544;28;20245;-72
2023/03/21 11:48:54;;;;;;;0.60;0.60;;;4.60;99.90;;;;;;5092698;28;20268;-73
2023/03/21 11:51:47;;;;;;;0.65;0.65;;;4.50;99.90;;;;;;5091599;28;20207;-72
2023/03/21 11:54:44;;;;;;;0.50;0.50;;;4.40;99.90;;;;;;5074458;28;20202;-72
2023/03/21 11:57:42;;;;;;;0.60;0.60;;;4.40;99.90;;;;;;5092553;28;20198;-72
2023/03/21 12:00:50;;;;;;;0.60;0.60;;;4.20;99.90;;;;;;5004704;28;20690;-72
2023/03/21 12:03:22;;;;;;;0.70;0.70;;;3.90;99.90;;;;;;5050803;28;20234;-72
2023/03/21 12:06:01;;;;;;;0.60;0.60;;;3.90;99.90;;;;;;5051032;28;20197;-72
2023/03/21 12:08:30;;;;;;;0.47;0.47;;;3.70;99.90;;;;;;5050759;28;20197;-72
2023/03/21 12:11:24;;;;;;;0.60;0.60;;;3.50;99.90;;;;;;5050848;28;20216;-72
2023/03/21 12:14:11;;;;;;;0.70;0.70;;;3.50;99.90;;;;;;5053431;28;20204;-72
2023/03/21 12:16:55;;;;;;;0.50;0.50;;;3.50;99.90;;;;;;5071090;28;20204;-72
2023/03/21 12:19:52;;;;;;;0.70;0.70;;;3.50;99.90;;;;;;5072089;28;20205;-72
2023/03/21 12:22:21;;;;;;;0.60;0.60;;;3.50;99.90;;;;;;5047553;28;20214;-73
2023/03/21 12:24:55;;;;;;;0.60;0.60;;;3.50;99.90;;;;;;5066936;28;20234;-72
2023/03/21 12:27:47;;;;;;;0.70;0.70;;;3.50;99.90;;;;;;5072057;28;20188;-73
2023/03/21 12:30:12;;;;;;;0.60;0.60;;;3.60;99.90;;;;;;5070842;28;20660;-72
2023/03/21 12:32:45;;;;;;;2.80;2.25;;;3.60;99.90;;;;;;5072071;28;20250;-73
2023/03/21 12:35:34;;;;;;;1.02;1.02;;;3.60;99.90;;;;;;5072173;28;20199;-72
2023/03/21 12:38:21;;;;;;;1.10;1.00;;;3.50;99.90;;;;;;5064839;28;20213;-72
2023/03/21 12:41:10;;;;;;;1.23;1.13;;;3.40;99.90;;;;;;5071978;28;20258;-73
2023/03/21 12:43:48;;;;;;;0.65;0.65;;;3.40;99.90;;;;;;5070090;28;20208;-73
2023/03/21 12:46:40;;;;;;;0.70;0.70;;;3.20;99.90;;;;;;5072010;28;20594;-72
2023/03/21 12:49:21;;;;;;;0.60;0.60;;;3.00;99.90;;;;;;5051161;28;20296;-72
2023/03/21 12:51:51;;;;;;;1.38;0.80;;;2.80;99.90;;;;;;5051845;28;20664;-72
2023/03/21 12:54:33;;;;;;;0.60;0.60;;;2.70;99.90;;;;;;5051721;28;20193;-72
2023/03/21 12:57:18;;;;;;;0.60;0.60;;;2.80;99.90;;;;;;5050490;28;20201;-73
2023/03/21 12:59:57;;;;;;;0.60;0.60;;;2.70;99.90;;;;;;5067095;28;20664;-73
2023/03/21 13:02:50;;;;;;;0.70;0.70;;;2.70;99.90;;;;;;5075529;28;20193;-73
2023/03/21 13:05:47;;;;;;;0.60;0.60;;;2.70;99.90;;;;;;5095539;28;20199;-73
2023/03/21 13:08:15;;;;;;;0.60;0.60;;;2.50;99.90;;;;;;5049968;28;20706;-72
2023/03/21 13:10:43;;;;;;;0.60;0.60;;;2.40;99.90;;;;;;5077012;28;20196;-73
2023/03/21 13:13:34;;;;;;;0.70;0.70;;;2.40;99.90;;;;;;5077352;28;20196;-73